| time (UTC) | temp F | wind direction | speed knots | gust knots | rain 1hr in | rain 24hr in | rain mn in | humidity % | barometer mb |
| 20260509000038 | 67 | 131 | 0.0 | 7.8 | 0.00 | 0.00 | 0.00 | 66 | 1007.1 |
| 20260508234550 | 67 | 0 | 0.9 | 3.5 | 0.00 | 0.00 | 0.00 | 67 | 1007.4 |
| 20260508233047 | 68 | 0 | 0.0 | 0.9 | 0.00 | 0.00 | 0.00 | 71 | 1008.0 |
| 20260508231538 | 70 | 0 | 0.0 | 0.9 | 0.00 | 0.00 | 0.00 | 66 | 1009.0 |
| 20260508230045 | 71 | 0 | 0.0 | 0.9 | 0.00 | 0.00 | 0.00 | 63 | 1008.3 |
| 20260508224543 | 74 | 0 | 0.0 | 0.9 | 0.00 | 0.00 | 0.00 | 58 | 1008.8 |
| 20260508223048 | 75 | 0 | 0.0 | 3.5 | 0.00 | 0.00 | 0.00 | 52 | 1009.6 |
| 20260508221542 | 76 | 0 | 0.0 | 3.5 | 0.00 | 0.00 | 0.00 | 51 | 1009.6 |
| 20260508220050 | 78 | 0 | 0.0 | 5.2 | 0.00 | 0.00 | 0.00 | 47 | 1009.2 |
| 20260508214547 | 80 | 150 | 0.0 | 4.3 | 0.00 | 0.00 | 0.00 | 46 | 1008.7 |
| 20260508213045 | 80 | 0 | 0.0 | 1.7 | 0.00 | 0.00 | 0.00 | 45 | 1008.9 |
| 20260508211539 | 80 | 271 | 0.0 | 3.5 | 0.00 | 0.00 | 0.00 | 45 | 1008.9 |
| 20260508210050 | 80 | 319 | 0.0 | 5.2 | 0.00 | 0.00 | 0.00 | 44 | 1009.2 |
| 20260508204544 | 81 | 191 | 0.9 | 7.8 | 0.00 | 0.00 | 0.00 | 43 | 1009.2 |
| 20260508203108 | 80 | 231 | 0.9 | 6.1 | 0.00 | 0.00 | 0.00 | 42 | 1009.2 |
| 20260508201559 | 80 | 0 | 0.9 | 5.2 | 0.00 | 0.00 | 0.00 | 43 | 1009.7 |
| 20260508200038 | 80 | 0 | 0.9 | 5.2 | 0.00 | 0.00 | 0.00 | 44 | 1009.9 |
| 20260508194545 | 80 | 0 | 0.0 | 5.2 | 0.00 | 0.00 | 0.00 | 44 | 1010.0 |
| 20260508193046 | 79 | 200 | 0.0 | 6.1 | 0.00 | 0.00 | 0.00 | 46 | 1010.1 |
| 20260508191543 | 78 | 228 | 0.9 | 5.2 | 0.00 | 0.00 | 0.00 | 48 | 1010.4 |
| 20260508190041 | 78 | 145 | 0.9 | 4.3 | 0.00 | 0.00 | 0.00 | 50 | 1010.7 |
| 20260508184537 | 77 | 127 | 1.7 | 5.2 | 0.00 | 0.00 | 0.00 | 47 | 1010.8 |
| 20260508183043 | 76 | 148 | 0.9 | 5.2 | 0.00 | 0.00 | 0.00 | 49 | 1010.9 |
| 20260508181554 | 75 | 98 | 0.0 | 6.1 | 0.00 | 0.00 | 0.00 | 50 | 1010.9 |
| 20260508180046 | 76 | 212 | 1.7 | 7.0 | 0.00 | 0.00 | 0.00 | 47 | 1011.1 |
| 20260508174551 | 76 | 84 | 0.9 | 8.7 | 0.00 | 0.00 | 0.00 | 51 | 1011.4 |
| 20260508173043 | 76 | 177 | 0.9 | 6.1 | 0.00 | 0.00 | 0.00 | 54 | 1011.8 |
| 20260508171545 | 75 | 215 | 0.0 | 5.2 | 0.00 | 0.00 | 0.00 | 53 | 1012.0 |
| 20260508170045 | 74 | 154 | 2.6 | 6.1 | 0.00 | 0.00 | 0.00 | 53 | 1012.4 |
| 20260508164544 | 73 | 186 | 2.6 | 7.8 | 0.00 | 0.00 | 0.00 | 54 | 1012.8 |
| 20260508163046 | 73 | 295 | 1.7 | 7.8 | 0.00 | 0.00 | 0.00 | 55 | 1013.1 |
| 20260508161539 | 72 | 158 | 1.7 | 7.8 | 0.00 | 0.00 | 0.00 | 57 | 1013.3 |
| 20260508160049 | 71 | 0 | 2.6 | 9.6 | 0.00 | 0.00 | 0.00 | 60 | 1013.2 |
| 20260508154544 | 70 | 238 | 0.9 | 7.0 | 0.00 | 0.00 | 0.00 | 62 | 1013.6 |
| 20260508153052 | 69 | 157 | 1.7 | 6.1 | 0.00 | 0.00 | 0.00 | 63 | 1013.6 |
| 20260508151545 | 69 | 0 | 0.0 | 5.2 | 0.00 | 0.00 | 0.00 | 67 | 1013.7 |
| 20260508150052 | 68 | 181 | 1.7 | 8.7 | 0.00 | 0.00 | 0.00 | 64 | 1013.9 |
| 20260508144545 | 67 | 172 | 0.9 | 5.2 | 0.00 | 0.00 | 0.00 | 66 | 1014.1 |
| 20260508143045 | 67 | 226 | 0.0 | 5.2 | 0.00 | 0.00 | 0.00 | 68 | 1014.1 |
| 20260508141606 | 66 | 76 | 0.0 | 3.5 | 0.00 | 0.00 | 0.00 | 69 | 1014.3 |
| 20260508140039 | 65 | 0 | 0.0 | 5.2 | 0.00 | 0.00 | 0.00 | 69 | 1014.4 |
| 20260508134555 | 65 | 174 | 0.0 | 3.5 | 0.00 | 0.00 | 0.00 | 71 | 1014.4 |
| 20260508133044 | 62 | 0 | 0.0 | 4.3 | 0.00 | 0.00 | 0.00 | 73 | 1014.3 |
| 20260508131543 | 60 | 165 | 0.0 | 4.3 | 0.00 | 0.00 | 0.00 | 75 | 1014.2 |
| 20260508130040 | 59 | 0 | 0.0 | 3.5 | 0.00 | 0.00 | 0.00 | 75 | 1014.0 |
| 20260508124539 | 57 | 165 | 0.0 | 4.3 | 0.00 | 0.00 | 0.00 | 77 | 1014.0 |
| 20260508123049 | 55 | 193 | 0.9 | 5.2 | 0.00 | 0.00 | 0.00 | 78 | 1014.0 |
| 20260508121545 | 53 | 0 | 0.0 | 2.6 | 0.00 | 0.00 | 0.00 | 80 | 1014.0 |
| 20260508120044 | 51 | 0 | 0.0 | 1.7 | 0.00 | 0.00 | 0.00 | 81 | 1014.2 |
| 20260508114542 | 49 | 183 | 0.0 | 0.9 | 0.00 | 0.00 | 0.00 | 85 | 1014.0 |
| 20260508113049 | 48 | 0 | 0.0 | 0.0 | 0.00 | 0.00 | 0.00 | 85 | 1013.8 |
| 20260508111537 | 48 | 0 | 0.0 | 0.9 | 0.00 | 0.00 | 0.00 | 84 | 1013.6 |
| 20260508110052 | 48 | 0 | 0.0 | 1.7 | 0.00 | 0.00 | 0.00 | 83 | 1013.3 |
| 20260508104544 | 48 | 0 | 0.0 | 0.0 | 0.00 | 0.00 | 0.00 | 83 | 1013.4 |
| 20260508103045 | 48 | 0 | 0.0 | 0.9 | 0.00 | 0.00 | 0.00 | 84 | 1013.4 |
| 20260508101541 | 48 | 0 | 0.0 | 0.0 | 0.00 | 0.00 | 0.00 | 83 | 1013.4 |
| 20260508100039 | 48 | 0 | 0.0 | 0.0 | 0.00 | 0.00 | 0.00 | 82 | 1013.1 |
| 20260508094538 | 48 | 0 | 0.0 | 0.0 | 0.00 | 0.00 | 0.00 | 82 | 1013.1 |
| 20260508093048 | 48 | 0 | 0.0 | 0.9 | 0.00 | 0.00 | 0.00 | 82 | 1013.0 |
| 20260508091551 | 48 | 0 | 0.0 | 0.0 | 0.00 | 0.00 | 0.00 | 82 | 1013.1 |
| 20260508090045 | 48 | 0 | 0.0 | 0.0 | 0.00 | 0.00 | 0.00 | 81 | 1013.0 |
| 20260508084538 | 49 | 0 | 0.0 | 0.0 | 0.00 | 0.00 | 0.00 | 81 | 1013.1 |
| 20260508083053 | 48 | 0 | 0.0 | 0.0 | 0.00 | 0.00 | 0.00 | 81 | 1013.1 |
| 20260508081539 | 48 | 0 | 0.0 | 0.0 | 0.00 | 0.00 | 0.00 | 81 | 1013.2 |
| 20260508080046 | 48 | 0 | 0.0 | 0.0 | 0.00 | 0.00 | 0.00 | 81 | 1013.5 |
| 20260508074550 | 48 | 0 | 0.0 | 0.9 | 0.00 | 0.00 | 0.00 | 82 | 1013.6 |
| 20260508073044 | 49 | 0 | 0.0 | 0.0 | 0.00 | 0.00 | 0.00 | 81 | 1013.7 |
| 20260508071549 | 49 | 0 | 0.0 | 0.0 | 0.00 | 0.00 | 0.00 | 80 | 1013.8 |
| 20260508070039 | 50 | 0 | 0.0 | 0.9 | 0.00 | 0.00 | 0.00 | 79 | 1013.9 |
| 20260508064540 | 50 | 0 | 0.0 | 0.0 | 0.00 | 0.00 | 0.00 | 78 | 1014.0 |
| 20260508063038 | 50 | 0 | 0.0 | 0.9 | 0.00 | 0.00 | 0.00 | 78 | 1014.0 |
| 20260508061545 | 50 | 0 | 0.0 | 0.9 | 0.00 | 0.00 | 0.00 | 79 | 1014.1 |
| 20260508060045 | 50 | 0 | 0.0 | 0.9 | 0.00 | 0.00 | 0.00 | 79 | 1014.2 |
| 20260508054543 | 49 | 0 | 0.0 | 0.0 | 0.00 | 0.00 | 0.00 | 80 | 1014.3 |
| 20260508053046 | 49 | 0 | 0.0 | 0.0 | 0.00 | 0.00 | 0.00 | 81 | 1014.3 |
| 20260508051540 | 48 | 0 | 0.0 | 0.0 | 0.00 | 0.00 | 0.00 | 83 | 1014.4 |
| 20260508050045 | 47 | 0 | 0.0 | 0.0 | 0.00 | 0.00 | 0.00 | 85 | 1014.6 |
| 20260508044544 | 47 | 0 | 0.0 | 0.0 | 0.00 | 0.00 | 0.00 | 85 | 1014.8 |
| 20260508043045 | 47 | 0 | 0.0 | 0.0 | 0.00 | 0.00 | 0.00 | 86 | 1014.9 |
| 20260508041542 | 48 | 0 | 0.0 | 0.0 | 0.00 | 0.00 | 0.00 | 86 | 1015.0 |
| 20260508040040 | 48 | 0 | 0.0 | 0.0 | 0.00 | 0.00 | 0.00 | 85 | 1015.0 |
| 20260508034547 | 48 | 0 | 0.0 | 0.0 | 0.00 | 0.00 | 0.00 | 84 | 1015.2 |
| 20260508033047 | 49 | 0 | 0.0 | 0.0 | 0.00 | 0.00 | 0.00 | 82 | 1015.2 |
| 20260508031543 | 50 | 0 | 0.0 | 0.0 | 0.00 | 0.00 | 0.00 | 83 | 1015.3 |
| 20260508030045 | 50 | 0 | 0.0 | 0.0 | 0.00 | 0.00 | 0.00 | 82 | 1015.3 |
| 20260508024549 | 51 | 0 | 0.0 | 0.0 | 0.00 | 0.00 | 0.00 | 80 | 1015.3 |
| 20260508023047 | 51 | 0 | 0.0 | 0.0 | 0.00 | 0.00 | 0.00 | 81 | 1015.3 |
| 20260508021553 | 52 | 0 | 0.0 | 0.0 | 0.00 | 0.00 | 0.00 | 79 | 1015.0 |
| 20260508020045 | 53 | 0 | 0.0 | 0.0 | 0.00 | 0.00 | 0.00 | 76 | 1014.7 |
| 20260508014544 | 54 | 0 | 0.0 | 0.0 | 0.00 | 0.00 | 0.00 | 75 | 1014.5 |
| 20260508013043 | 55 | 0 | 0.0 | 0.0 | 0.00 | 0.00 | 0.00 | 71 | 1014.3 |
| 20260508011546 | 57 | 0 | 0.0 | 0.0 | 0.00 | 0.00 | 0.00 | 66 | 1014.2 |
| 20260508010045 | 59 | 0 | 0.0 | 0.0 | 0.00 | 0.00 | 0.00 | 63 | 1014.3 |
| 20260508004546 | 61 | 0 | 0.0 | 0.0 | 0.00 | 0.00 | 0.00 | 59 | 1014.1 |
| 20260508003043 | 62 | 0 | 0.0 | 0.0 | 0.00 | 0.00 | 0.00 | 56 | 1014.1 |
| 20260508001545 | 63 | 207 | 0.0 | 0.9 | 0.00 | 0.00 | 0.00 | 55 | 1014.2 |